Time;durP1;ratioP1;P1;durP2;ratioP2;P2;SDS_P1;SDS_P2;PMS_P1;PMS_P2;Temp;Humidity;BMP_temperature;BMP_pressure;BME280_temperature;BME280_humidity;BME280_pressure;Samples;Min_cycle;Max_cycle;Signal;HPM_P1;HPM_P2
2022/01/31 00:00:17;;;;;;;28.45;4.07;;;;;;;2.26;80.85;101413.28;2055447;28;41830;-74
2022/01/31 00:01:19;;;;;;;30.20;4.40;;;;;;;2.24;80.95;101413.28;2055086;28;46517;-75
2022/01/31 00:02:20;;;;;;;36.70;4.90;;;;;;;2.23;81.20;101408.84;2055548;28;44520;-74
2022/01/31 00:03:22;;;;;;;38.67;3.97;;;;;;;2.24;80.90;101400.06;2055742;28;45724;-74
2022/01/31 00:04:24;;;;;;;28.83;4.13;;;;;;;2.26;80.63;101401.00;2055314;28;46441;-75
2022/01/31 00:05:25;;;;;;;35.60;4.47;;;;;;;2.26;80.83;101385.13;2055435;28;44115;-75
2022/01/31 00:06:27;;;;;;;36.92;3.97;;;;;;;2.25;80.88;101363.97;2055390;28;44031;-75
2022/01/31 00:07:31;;;;;;;31.23;4.15;;;;;;;2.25;80.93;101359.56;2055327;28;44283;-75
2022/01/31 00:08:33;;;;;;;31.83;4.07;;;;;;;2.26;80.32;101365.72;2055443;28;44131;-75
2022/01/31 00:09:40;;;;;;;36.55;4.32;;;;;;;2.28;80.18;101362.28;2055890;28;21132;-75
2022/01/31 00:10:42;;;;;;;24.42;3.45;;;;;;;2.27;80.27;101339.34;2055873;28;38739;-74
2022/01/31 00:11:53;;;;;;;33.00;4.57;;;;;;;2.28;79.96;101325.28;2055267;28;43301;-75
2022/01/31 00:13:07;;;;;;;35.63;3.90;;;;;;;2.29;79.38;101303.25;2055458;28;43621;-74
2022/01/31 00:14:20;;;;;;;32.75;4.10;;;;;;;2.29;80.23;101297.97;2055278;28;45160;-75
2022/01/31 00:15:25;;;;;;;32.10;4.50;;;;;;;2.29;79.49;101290.06;2055114;28;46560;-75
2022/01/31 00:16:32;;;;;;;25.45;3.35;;;;;;;2.28;79.54;101284.78;2056253;28;20363;-75
2022/01/31 00:17:36;;;;;;;37.13;4.63;;;;;;;2.28;80.16;101280.38;2055084;28;45495;-74
2022/01/31 00:18:38;;;;;;;28.23;4.15;;;;;;;2.24;80.05;101275.91;2055427;28;44368;-75
2022/01/31 00:19:41;;;;;;;33.38;3.88;;;;;;;2.24;80.57;101265.34;2055491;28;45362;-75
2022/01/31 00:20:43;;;;;;;31.38;3.65;;;;;;;2.26;80.45;101262.69;2054919;28;45019;-74
2022/01/31 00:21:45;;;;;;;27.33;3.92;;;;;;;2.28;79.68;101255.72;2055403;28;43321;-75
2022/01/31 00:22:47;;;;;;;33.05;3.90;;;;;;;2.29;79.08;101254.81;2055066;28;44809;-74
2022/01/31 00:23:48;;;;;;;33.30;3.95;;;;;;;2.30;79.24;101253.97;2055357;28;47141;-75
2022/01/31 00:24:50;;;;;;;35.03;4.00;;;;;;;2.30;79.37;101251.34;2054953;28;45341;-75
2022/01/31 00:25:52;;;;;;;30.05;3.50;;;;;;;2.29;79.58;101238.97;2051433;28;45190;-75
2022/01/31 00:26:53;;;;;;;29.05;3.97;;;;;;;2.29;79.50;101233.69;2054195;28;46514;-76
2022/01/31 00:27:55;;;;;;;27.85;3.83;;;;;;;2.27;79.60;101231.03;2043471;28;45588;-75
2022/01/31 00:28:56;;;;;;;29.58;4.22;;;;;;;2.28;79.54;101238.09;2037714;28;46851;-75
2022/01/31 00:29:59;;;;;;;20.67;3.00;;;;;;;2.27;79.93;101241.59;2047913;28;20953;-76
2022/01/31 00:31:00;;;;;;;36.60;4.10;;;;;;;2.27;79.02;101240.72;2054632;28;45637;-75
2022/01/31 00:32:04;;;;;;;31.33;3.78;;;;;;;2.28;79.78;101246.03;2056130;28;20040;-75
2022/01/31 00:33:06;;;;;;;34.95;3.88;;;;;;;2.26;80.04;101247.75;2046569;28;39777;-75
2022/01/31 00:34:10;;;;;;;35.20;3.50;;;;;;;2.27;79.25;101246.88;2047541;28;20107;-75
2022/01/31 00:35:12;;;;;;;27.30;3.22;;;;;;;2.26;80.20;101252.13;2046179;28;44781;-75
2022/01/31 00:36:14;;;;;;;31.30;4.05;;;;;;;2.27;79.76;101251.28;2055446;28;45428;-75
2022/01/31 00:37:15;;;;;;;23.05;3.72;;;;;;;2.28;79.99;101264.53;2054974;28;46085;-75
2022/01/31 00:38:17;;;;;;;39.83;4.35;;;;;;;2.31;79.66;101262.78;2054991;28;45477;-75
2022/01/31 00:39:19;;;;;;;26.88;3.97;;;;;;;2.29;80.05;101268.03;2055913;28;20193;-75
2022/01/31 00:40:21;;;;;;;23.45;3.92;;;;;;;2.28;79.60;101261.88;2046616;28;43152;-75
2022/01/31 00:41:23;;;;;;;28.98;4.15;;;;;;;2.29;80.37;101255.72;2046481;28;45446;-75
2022/01/31 00:42:26;;;;;;;34.95;3.90;;;;;;;2.32;79.48;101254.00;2047375;28;20747;-75
2022/01/31 00:43:28;;;;;;;29.30;3.40;;;;;;;2.33;79.75;101253.13;2046774;28;44282;-75
2022/01/31 00:45:56;;;;;;;28.50;3.97;;;;;;;2.34;80.08;101236.41;2054813;28;42882;-75
2022/01/31 00:47:03;;;;;;;25.95;3.60;;;;;;;2.35;80.17;101238.19;2047590;28;20044;-75
2022/01/31 00:48:14;;;;;;;25.95;3.33;;;;;;;2.37;79.38;101236.44;2047333;28;21046;-75
2022/01/31 00:49:38;;;;;;;29.42;4.18;;;;;;;2.38;80.07;101230.31;2039204;29;20098;-75
2022/01/31 00:50:39;;;;;;;28.40;3.63;;;;;;;2.38;80.84;101222.38;2042784;28;20248;-75
2022/01/31 00:51:42;;;;;;;28.13;4.10;;;;;;;2.37;81.57;101215.31;2047731;28;20143;-75
2022/01/31 00:52:47;;;;;;;25.63;3.40;;;;;;;2.39;81.01;101216.25;2048257;28;22728;-75
2022/01/31 00:53:48;;;;;;;32.70;3.58;;;;;;;2.38;81.22;101211.81;2046927;28;46379;-75
2022/01/31 00:54:50;;;;;;;33.35;3.88;;;;;;;2.38;81.55;101201.25;2047252;28;20044;-75
2022/01/31 00:55:52;;;;;;;30.73;4.03;;;;;;;2.41;81.77;101201.28;2045874;28;44291;-75
2022/01/31 00:56:55;;;;;;;29.58;3.90;;;;;;;2.41;81.69;101196.88;2047404;28;44854;-75
2022/01/31 00:57:56;;;;;;;24.00;3.40;;;;;;;2.41;82.00;101185.44;2046942;28;45323;-75
2022/01/31 00:58:58;;;;;;;31.33;3.83;;;;;;;2.40;82.01;101184.53;2047539;28;32073;-75
2022/01/31 01:00:00;;;;;;;28.08;3.33;;;;;;;2.39;82.36;101174.84;2047101;28;44884;-75
2022/01/31 01:01:02;;;;;;;37.55;4.22;;;;;;;2.39;82.41;101171.31;2047713;28;20114;-75
2022/01/31 01:02:04;;;;;;;31.42;4.25;;;;;;;2.37;83.11;101150.16;2046591;28;43977;-76
2022/01/31 01:03:06;;;;;;;28.77;3.80;;;;;;;2.36;83.31;101151.00;2047233;28;44390;-76
2022/01/31 01:04:10;;;;;;;23.80;3.78;;;;;;;2.36;83.63;101147.50;2046896;28;44551;-76
2022/01/31 01:05:14;;;;;;;28.20;3.30;;;;;;;2.35;83.11;101132.50;2039548;29;20170;-76
2022/01/31 01:06:16;;;;;;;32.15;4.35;;;;;;;2.34;83.81;101136.91;2038365;28;43127;-77
2022/01/31 01:07:22;;;;;;;27.27;3.70;;;;;;;2.35;84.07;101129.84;2047373;28;45918;-77
2022/01/31 01:08:24;;;;;;;31.13;3.38;;;;;;;2.34;83.00;101128.09;2047208;28;20078;-77
2022/01/31 01:09:25;;;;;;;25.05;3.40;;;;;;;2.34;84.03;101120.16;2046231;28;45934;-77
2022/01/31 01:10:27;;;;;;;24.75;3.22;;;;;;;2.33;83.21;101113.97;2046847;28;44001;-77
2022/01/31 01:11:29;;;;;;;27.40;2.97;;;;;;;2.32;83.70;101112.22;2039229;29;20047;-77
2022/01/31 01:12:31;;;;;;;34.63;3.90;;;;;;;2.32;83.38;101100.78;2037965;28;46839;-77
2022/01/31 01:13:33;;;;;;;26.33;3.75;;;;;;;2.33;83.75;101102.53;2046396;28;43697;-77
2022/01/31 01:14:35;;;;;;;25.58;3.95;;;;;;;2.33;83.84;101102.53;2046053;28;44219;-77
2022/01/31 01:15:37;;;;;;;27.27;3.97;;;;;;;2.34;82.99;101097.25;2039102;29;29868;-77
2022/01/31 01:16:38;;;;;;;28.27;3.22;;;;;;;2.35;84.17;101090.22;2042055;28;45181;-77
2022/01/31 01:17:41;;;;;;;28.33;3.70;;;;;;;2.33;84.12;101084.91;2046917;28;45160;-77
2022/01/31 01:18:42;;;;;;;32.67;3.67;;;;;;;2.33;84.01;101086.66;2047659;28;20043;-77
2022/01/31 01:19:44;;;;;;;29.63;4.38;;;;;;;2.32;84.14;101069.06;2047676;28;34831;-77
2022/01/31 01:20:46;;;;;;;28.65;3.75;;;;;;;2.32;83.88;101069.06;2039026;29;20120;-77
2022/01/31 01:21:48;;;;;;;30.73;3.38;;;;;;;2.33;83.61;101065.53;2038372;28;43124;-77
2022/01/31 01:22:50;;;;;;;26.80;3.50;;;;;;;2.34;83.77;101062.03;2047540;28;20146;-77
2022/01/31 01:23:51;;;;;;;32.22;3.72;;;;;;;2.33;83.75;101054.97;2046048;28;43365;-77
2022/01/31 01:24:53;;;;;;;25.60;3.78;;;;;;;2.32;83.61;101054.09;2046044;28;45692;-77
2022/01/31 01:25:55;;;;;;;33.83;3.67;;;;;;;2.33;84.08;101047.03;2047224;28;20061;-78
2022/01/31 01:26:57;;;;;;;29.83;3.38;;;;;;;2.32;84.50;101042.66;2046861;28;20871;-77
2022/01/31 01:27:59;;;;;;;30.00;3.60;;;;;;;2.33;84.19;101036.47;2047389;28;20462;-77
2022/01/31 01:29:01;;;;;;;30.60;4.00;;;;;;;2.31;83.97;101031.16;2046097;28;44956;-77
2022/01/31 01:30:06;;;;;;;28.70;3.40;;;;;;;2.32;84.11;101027.66;2047294;28;20080;-77
2022/01/31 01:31:08;;;;;;;29.50;4.03;;;;;;;2.31;84.97;101025.00;2039020;29;20064;-77
2022/01/31 01:32:14;;;;;;;29.92;4.25;;;;;;;2.32;84.62;101018.88;2032058;29;20259;-78
2022/01/31 01:33:20;;;;;;;25.75;3.83;;;;;;;2.32;84.49;101013.59;2031483;29;20067;-78
2022/01/31 01:34:25;;;;;;;28.45;3.47;;;;;;;2.32;83.78;101010.94;2032380;29;20052;-77
2022/01/31 01:35:34;;;;;;;30.98;3.45;;;;;;;2.31;83.95;101011.78;2039438;28;20056;-77
2022/01/31 01:36:35;;;;;;;28.98;4.10;;;;;;;2.31;84.51;100994.19;2038319;29;42057;-77
2022/01/31 01:37:38;;;;;;;26.23;3.58;;;;;;;2.29;84.13;100995.91;2030864;29;27628;-75
2022/01/31 01:38:42;;;;;;;21.00;3.30;;;;;;;2.29;84.70;100991.50;2039158;28;32073;-77
2022/01/31 01:39:45;;;;;;;29.95;3.72;;;;;;;2.32;84.19;100989.81;2046841;28;20130;-77
2022/01/31 01:40:48;;;;;;;24.73;3.67;;;;;;;2.35;84.15;100976.59;2039494;29;20075;-77
2022/01/31 01:41:52;;;;;;;31.00;3.75;;;;;;;2.35;83.70;100973.97;2038863;28;20943;-77
2022/01/31 01:42:57;;;;;;;26.70;3.55;;;;;;;2.35;84.27;100971.31;2039239;29;20041;-77
2022/01/31 01:43:59;;;;;;;29.02;4.85;;;;;;;2.36;84.37;100963.41;2039217;28;20946;-77
2022/01/31 01:45:01;;;;;;;23.08;3.30;;;;;;;2.35;83.77;100951.09;2047145;28;20090;-77
2022/01/31 01:46:11;;;;;;;30.75;4.18;;;;;;;2.36;83.48;100949.34;2046736;28;20036;-76
2022/01/31 01:47:22;;;;;;;29.65;3.28;;;;;;;2.37;83.72;100937.88;2102540;23;20597;-71
2022/01/31 01:48:24;;;;;;;27.83;3.35;;;;;;;2.38;84.15;100939.66;2055931;28;20239;-70
2022/01/31 01:49:28;;;;;;;24.15;3.53;;;;;;;2.36;83.26;100926.44;2055282;28;20944;-71
2022/01/31 01:50:29;;;;;;;28.75;3.78;;;;;;;2.39;83.01;100923.84;2054982;28;20052;-71
2022/01/31 01:51:34;;;;;;;28.77;4.07;;;;;;;2.42;82.89;100922.97;2063597;28;20969;-71
2022/01/31 01:52:35;;;;;;;30.75;4.07;;;;;;;2.43;82.70;100909.78;2062840;28;20089;-70
2022/01/31 01:53:38;;;;;;;24.67;3.38;;;;;;;2.42;83.11;100900.09;2062920;28;20166;-71
2022/01/31 01:54:40;;;;;;;30.33;3.58;;;;;;;2.43;83.00;100903.59;2070708;28;44293;-71
2022/01/31 01:55:45;;;;;;;29.27;4.00;;;;;;;2.43;82.78;100891.28;2063349;28;29150;-70
2022/01/31 01:56:47;;;;;;;27.45;3.55;;;;;;;2.43;82.80;100895.69;2062910;28;20233;-71
2022/01/31 01:57:49;;;;;;;30.23;3.85;;;;;;;2.44;82.46;100884.22;2062953;28;20047;-70
2022/01/31 01:58:51;;;;;;;27.35;3.13;;;;;;;2.43;82.09;100887.75;2062996;28;20857;-71
2022/01/31 01:59:57;;;;;;;28.90;3.70;;;;;;;2.43;82.80;100885.13;2055055;28;20912;-71
2022/01/31 02:01:14;;;;;;;23.58;3.30;;;;;;;2.41;82.57;100873.66;2062605;28;20039;-71
2022/01/31 02:02:26;;;;;;;22.25;3.42;;;;;;;2.40;82.39;100867.44;2062436;28;20035;-71
2022/01/31 02:03:39;;;;;;;27.83;3.22;;;;;;;2.42;82.71;100851.63;2055927;28;20048;-71
2022/01/31 02:04:43;;;;;;;28.40;3.72;;;;;;;2.40;82.85;100845.44;2055351;28;23248;-70
2022/01/31 02:06:03;;;;;;;27.23;3.47;;;;;;;2.37;82.82;100846.31;2049324;28;20040;-71
2022/01/31 02:07:05;;;;;;;25.95;3.25;;;;;;;2.37;83.09;100846.31;2049720;28;20111;-71
2022/01/31 02:08:06;;;;;;;29.55;3.88;;;;;;;2.38;82.67;100839.25;2062358;28;43337;-71
2022/01/31 02:09:10;;;;;;;21.70;3.70;;;;;;;2.37;82.44;100829.56;2061848;28;42324;-71
2022/01/31 02:10:14;;;;;;;22.88;3.35;;;;;;;2.35;82.82;100826.94;2062315;28;46069;-71
2022/01/31 02:11:30;;;;;;;28.52;3.47;;;;;;;2.35;82.17;100831.31;2057046;28;20125;-71
2022/01/31 02:12:46;;;;;;;23.13;3.45;;;;;;;2.32;82.49;100823.38;2047005;28;20135;-71
2022/01/31 02:14:04;;;;;;;24.58;3.53;;;;;;;2.29;82.98;100822.44;2046496;28;20094;-71
2022/01/31 02:15:08;;;;;;;15.02;3.28;;;;;;;2.31;83.07;100818.94;2057153;28;20849;-71
2022/01/31 02:16:32;;;;;;;29.60;3.67;;;;;;;2.30;82.56;100807.50;2062657;28;20035;-71
2022/01/31 02:17:42;;;;;;;26.67;3.80;;;;;;;2.29;82.84;100803.06;2055211;28;20055;-71
2022/01/31 02:18:53;;;;;;;27.15;3.65;;;;;;;2.31;82.52;100805.72;2048765;28;20051;-71
2022/01/31 02:20:14;;;;;;;22.35;3.17;;;;;;;2.29;82.63;100803.94;2051908;28;20811;-71
2022/01/31 02:21:17;;;;;;;18.73;3.30;;;;;;;2.29;82.84;100793.38;2057869;28;20929;-71
2022/01/31 02:22:19;;;;;;;28.08;3.95;;;;;;;2.28;82.64;100796.91;2056603;28;20054;-71
2022/01/31 02:23:34;;;;;;;29.45;3.63;;;;;;;2.30;82.45;100796.94;2057774;28;20048;-71
2022/01/31 02:24:59;;;;;;;23.98;3.50;;;;;;;2.32;82.72;100794.31;2064718;28;20051;-71
2022/01/31 02:26:04;;;;;;;23.60;3.45;;;;;;;2.33;82.31;100786.38;2064218;28;37230;-71
2022/01/31 02:27:30;;;;;;;21.77;3.35;;;;;;;2.40;81.85;100782.03;2065119;28;20055;-70
2022/01/31 02:28:38;;;;;;;27.08;3.60;;;;;;;2.42;81.65;100782.91;2064374;28;20083;-70
2022/01/31 02:29:40;;;;;;;19.10;3.17;;;;;;;2.41;82.10;100778.53;2056464;28;20051;-71
2022/01/31 02:30:42;;;;;;;26.38;4.55;;;;;;;2.43;81.92;100771.50;2056109;28;20039;-71
2022/01/31 02:31:48;;;;;;;27.88;3.40;;;;;;;2.42;82.38;100769.72;2055940;28;20094;-71
2022/01/31 02:32:50;;;;;;;20.15;3.42;;;;;;;2.44;81.95;100767.97;2057034;28;20035;-71
2022/01/31 02:33:53;;;;;;;23.58;3.88;;;;;;;2.45;82.05;100767.97;2056014;28;20117;-71
2022/01/31 02:34:55;;;;;;;19.42;3.15;;;;;;;2.49;81.95;100753.03;2063819;28;44456;-71
2022/01/31 02:36:00;;;;;;;26.15;3.28;;;;;;;2.50;81.04;100756.56;2063607;28;45610;-71
2022/01/31 02:37:02;;;;;;;22.40;3.75;;;;;;;2.50;82.20;100746.88;2064129;28;20050;-71
2022/01/31 02:38:05;;;;;;;21.35;3.30;;;;;;;2.51;82.24;100743.34;2056105;28;20803;-71
2022/01/31 02:39:07;;;;;;;23.40;3.97;;;;;;;2.51;82.00;100724.84;2055073;28;47151;-71
2022/01/31 02:40:10;;;;;;;19.58;3.55;;;;;;;2.51;82.25;100722.22;2056296;28;20047;-71
2022/01/31 02:41:12;;;;;;;20.48;3.70;;;;;;;2.51;82.04;100714.28;2055932;28;20051;-71
2022/01/31 02:42:14;;;;;;;24.27;4.22;;;;;;;2.51;82.15;100711.63;2046884;28;44525;-71
2022/01/31 02:43:30;;;;;;;20.00;3.55;;;;;;;2.52;82.56;100713.41;2049054;28;20044;-71
2022/01/31 02:44:32;;;;;;;28.10;4.28;;;;;;;2.53;81.83;100714.28;2065659;28;20112;-71
2022/01/31 02:45:45;;;;;;;26.35;3.40;;;;;;;2.52;82.95;100716.06;2064246;28;20880;-71
2022/01/31 02:46:52;;;;;;;17.90;3.67;;;;;;;2.51;83.29;100706.34;2055876;28;20170;-69
2022/01/31 02:47:57;;;;;;;23.77;3.55;;;;;;;2.51;83.37;100701.06;2064039;28;20046;-71
2022/01/31 02:49:02;;;;;;;25.55;4.63;;;;;;;2.50;83.67;100707.25;2056970;28;20050;-71
2022/01/31 02:50:08;;;;;;;19.65;3.80;;;;;;;2.48;83.63;100696.66;2063208;28;44241;-71
2022/01/31 02:51:20;;;;;;;24.77;4.28;;;;;;;2.47;84.53;100697.53;2047526;28;39501;-72
2022/01/31 02:52:25;;;;;;;20.88;3.83;;;;;;;2.47;84.79;100686.06;2057094;28;20889;-71
2022/01/31 02:53:31;;;;;;;20.77;3.88;;;;;;;2.46;84.27;100693.13;2064265;28;20101;-71
2022/01/31 02:54:33;;;;;;;22.80;3.83;;;;;;;2.43;85.06;100684.31;2055600;28;20044;-72
2022/01/31 02:55:35;;;;;;;22.17;3.97;;;;;;;2.41;85.32;100678.13;2056054;28;20043;-72
2022/01/31 02:56:40;;;;;;;21.20;3.97;;;;;;;2.40;85.97;100674.56;2055879;28;20129;-72
2022/01/31 02:57:42;;;;;;;22.52;4.18;;;;;;;2.36;86.96;100667.53;2048480;28;20143;-71
2022/01/31 02:58:44;;;;;;;23.30;4.88;;;;;;;2.36;86.43;100659.59;2056060;28;20047;-71
2022/01/31 02:59:51;;;;;;;24.70;4.60;;;;;;;2.31;86.94;100661.31;2055985;28;20101;-71
2022/01/31 03:00:58;;;;;;;24.02;4.65;;;;;;;2.30;86.81;100654.28;2048808;28;20051;-71
2022/01/31 03:02:08;;;;;;;29.70;5.45;;;;;;;2.25;87.34;100645.44;2056842;28;20157;-71
2022/01/31 03:03:10;;;;;;;30.83;5.43;;;;;;;2.19;87.93;100648.94;2063849;28;20031;-72
2022/01/31 03:04:13;;;;;;;20.35;4.55;;;;;;;2.16;87.25;100633.06;2055826;28;46828;-72
2022/01/31 03:05:15;;;;;;;22.50;4.68;;;;;;;2.13;88.43;100637.44;2055822;28;20269;-72
2022/01/31 03:06:17;;;;;;;22.15;4.82;;;;;;;2.08;88.05;100633.00;2056674;28;20054;-72
2022/01/31 03:07:21;;;;;;;30.63;5.45;;;;;;;2.03;88.84;100628.59;2055717;28;20901;-72
2022/01/31 03:08:24;;;;;;;25.42;5.13;;;;;;;1.99;88.21;100624.13;2056137;28;20145;-72
2022/01/31 03:09:27;;;;;;;23.05;4.85;;;;;;;1.95;88.98;100617.06;2055354;28;20122;-72
2022/01/31 03:10:30;;;;;;;28.55;5.97;;;;;;;1.94;89.52;100615.28;2048062;28;20055;-72
2022/01/31 03:11:32;;;;;;;28.55;5.32;;;;;;;1.89;89.56;100616.16;2055470;28;20039;-71
2022/01/31 03:12:40;;;;;;;22.05;5.22;;;;;;;1.85;89.83;100611.72;2063838;28;20124;-72
2022/01/31 03:13:42;;;;;;;28.30;6.25;;;;;;;1.84;90.04;100602.03;2055486;28;20961;-71
2022/01/31 03:14:46;;;;;;;22.55;6.07;;;;;;;1.79;90.34;100587.91;2048265;28;20043;-72
2022/01/31 03:16:06;;;;;;;21.13;4.95;;;;;;;1.78;91.48;100591.44;2056052;28;20067;-72
2022/01/31 03:17:26;;;;;;;;;;;;;;;1.73;90.73;100593.16;2056140;28;20036;-71
2022/01/31 03:18:31;;;;;;;22.85;5.28;;;;;;;1.71;90.83;100590.50;2064201;28;19926;-72
2022/01/31 03:19:32;;;;;;;22.27;5.90;;;;;;;1.70;91.17;100583.44;2055018;28;20992;-72
2022/01/31 03:20:36;;;;;;;22.90;5.38;;;;;;;1.68;91.34;100579.91;2055576;28;20940;-72
2022/01/31 03:21:38;;;;;;;24.65;6.53;;;;;;;1.68;91.27;100571.13;2062845;28;20074;-63
2022/01/31 03:22:39;;;;;;;26.88;6.63;;;;;;;1.65;91.73;100564.09;2063329;28;33987;-72
2022/01/31 03:23:41;;;;;;;24.60;6.40;;;;;;;1.65;91.53;100565.81;2062743;28;45142;-72
2022/01/31 03:24:43;;;;;;;25.35;6.38;;;;;;;1.61;91.31;100561.41;2063322;28;39627;-72
2022/01/31 03:25:47;;;;;;;30.38;7.35;;;;;;;1.61;91.86;100553.47;2054897;28;45135;-72
2022/01/31 03:26:51;;;;;;;30.48;6.85;;;;;;;1.59;91.61;100548.19;2055896;28;20036;-72
2022/01/31 03:27:55;;;;;;;28.90;7.05;;;;;;;1.58;91.99;100545.53;2063574;28;20125;-72
2022/01/31 03:28:57;;;;;;;27.30;6.97;;;;;;;1.55;92.15;100542.91;2063419;28;24841;-72
2022/01/31 03:30:04;;;;;;;24.73;7.22;;;;;;;1.58;92.57;100540.25;2063804;28;30567;-72
2022/01/31 03:31:06;;;;;;;28.15;7.07;;;;;;;1.53;92.20;100530.56;2053824;28;44530;-71
2022/01/31 03:32:09;;;;;;;26.88;7.95;;;;;;;1.51;92.58;100527.03;2054797;28;45151;-70
2022/01/31 03:33:10;;;;;;;27.65;7.38;;;;;;;1.48;92.51;100534.03;2055104;28;41574;-72
2022/01/31 03:34:12;;;;;;;23.30;7.18;;;;;;;1.48;92.25;100521.72;2047098;28;20116;-71
2022/01/31 03:35:16;;;;;;;24.10;7.28;;;;;;;1.48;92.27;100511.19;2055953;28;20177;-72
2022/01/31 03:36:19;;;;;;;37.80;8.02;;;;;;;1.46;93.08;100507.66;2055463;28;20890;-72
2022/01/31 03:37:20;;;;;;;25.67;7.47;;;;;;;1.46;92.72;100505.00;2055162;28;43715;-72
2022/01/31 03:38:22;;;;;;;23.27;7.13;;;;;;;1.43;92.69;100499.69;2055690;28;20265;-73
2022/01/31 03:39:24;;;;;;;23.35;7.38;;;;;;;1.41;92.57;100504.09;2055733;28;20167;-72
2022/01/31 03:40:25;;;;;;;24.38;7.95;;;;;;;1.38;93.05;100496.13;2055279;28;23967;-72
2022/01/31 03:41:27;;;;;;;25.95;7.63;;;;;;;1.36;92.88;100494.38;2063733;28;20039;-72
2022/01/31 03:42:30;;;;;;;31.65;7.72;;;;;;;1.29;93.30;100486.44;2063666;28;20043;-71
2022/01/31 03:43:31;;;;;;;23.67;7.47;;;;;;;1.27;92.92;100487.28;2063652;28;20108;-72
2022/01/31 03:44:34;;;;;;;28.17;7.45;;;;;;;1.22;93.49;100482.00;2063515;28;20830;-72
2022/01/31 03:45:36;;;;;;;26.42;7.60;;;;;;;1.20;93.10;100488.09;2063033;28;46162;-72
2022/01/31 03:46:45;;;;;;;26.27;7.72;;;;;;;1.14;92.82;100475.75;2063304;28;20176;-73
2022/01/31 03:47:47;;;;;;;24.63;6.90;;;;;;;1.10;93.10;100472.22;2063233;28;44486;-72
2022/01/31 03:48:50;;;;;;;22.33;7.57;;;;;;;1.05;92.63;100471.28;2063361;28;20047;-72
2022/01/31 03:50:09;;;;;;;30.58;8.20;;;;;;;1.02;93.14;100465.09;2055513;28;20182;-72
2022/01/31 03:51:11;;;;;;;28.77;7.60;;;;;;;0.97;93.18;100456.28;2054908;28;20917;-72
2022/01/31 03:52:13;;;;;;;25.08;8.25;;;;;;;0.94;93.25;100457.16;2048267;28;20142;-72
2022/01/31 03:53:20;;;;;;;27.85;8.27;;;;;;;0.90;93.53;100456.25;2056128;28;21048;-72
2022/01/31 03:54:21;;;;;;;25.77;7.97;;;;;;;0.87;93.68;100450.06;2063430;28;30166;-71
2022/01/31 03:55:24;;;;;;;26.88;8.02;;;;;;;0.83;93.59;100435.09;2063777;28;20790;-72
2022/01/31 03:56:28;;;;;;;28.33;8.52;;;;;;;0.81;93.48;100449.97;2055605;28;20039;-72
2022/01/31 03:57:51;;;;;;;24.50;8.18;;;;;;;0.73;93.71;100437.63;2042634;28;20962;-73
2022/01/31 03:59:15;;;;;;;27.77;8.48;;;;;;;0.71;94.20;100433.22;2048565;28;20950;-72
2022/01/31 04:00:18;;;;;;;23.63;8.25;;;;;;;0.68;93.89;100423.56;2047700;28;20059;-72
2022/01/31 04:01:23;;;;;;;27.90;8.57;;;;;;;0.67;93.90;100420.91;2054393;28;44729;-72
2022/01/31 04:02:25;;;;;;;25.83;8.90;;;;;;;0.64;94.03;100411.19;2055513;28;46067;-72
2022/01/31 04:03:27;;;;;;;26.63;8.23;;;;;;;0.63;93.73;100412.09;2055067;28;44613;-72
2022/01/31 04:04:31;;;;;;;33.60;8.98;;;;;;;0.61;94.05;100405.94;2063087;28;45219;-72
2022/01/31 04:05:33;;;;;;;25.13;8.10;;;;;;;0.61;94.37;100410.28;2062236;28;46147;-72
2022/01/31 04:06:34;;;;;;;21.35;8.43;;;;;;;0.58;94.40;100395.34;2055410;28;45373;-72
2022/01/31 04:07:36;;;;;;;26.70;9.05;;;;;;;0.56;94.22;100400.59;2054940;28;45086;-72
2022/01/31 04:08:38;;;;;;;23.80;9.35;;;;;;;0.53;94.31;100394.44;2055249;28;28316;-72
2022/01/31 04:09:40;;;;;;;24.92;9.07;;;;;;;0.52;94.56;100395.28;2054971;28;44973;-72
2022/01/31 04:10:44;;;;;;;22.42;8.93;;;;;;;0.51;94.33;100386.50;2055291;28;45958;-72
2022/01/31 04:11:46;;;;;;;24.10;9.65;;;;;;;0.48;94.22;100385.59;2054973;28;44047;-72
2022/01/31 04:12:48;;;;;;;23.08;9.50;;;;;;;0.47;95.15;100375.94;2055280;28;46523;-72
2022/01/31 04:13:50;;;;;;;21.52;9.75;;;;;;;0.43;94.54;100369.78;2055932;28;20177;-72
2022/01/31 04:14:51;;;;;;;26.70;9.85;;;;;;;0.43;94.46;100360.97;2055126;28;40006;-72
2022/01/31 04:15:53;;;;;;;21.35;9.68;;;;;;;0.40;94.65;100364.47;2054440;28;44130;-72
2022/01/31 04:16:57;;;;;;;24.15;9.05;;;;;;;0.39;94.62;100362.69;2054894;28;35536;-72
2022/01/31 04:17:58;;;;;;;23.42;10.98;;;;;;;0.36;94.89;100362.69;2055357;28;43645;-72
2022/01/31 04:19:00;;;;;;;21.92;9.68;;;;;;;0.37;94.76;100365.31;2055601;28;44902;-72
2022/01/31 04:20:07;;;;;;;24.15;9.18;;;;;;;0.34;94.78;100357.41;2055048;28;44138;-72
2022/01/31 04:21:13;;;;;;;24.67;9.45;;;;;;;0.32;94.78;100351.25;2057629;28;46189;-72
2022/01/31 04:22:18;;;;;;;19.52;9.38;;;;;;;0.31;94.91;100348.59;2063115;28;43438;-72
2022/01/31 04:23:22;;;;;;;28.23;9.88;;;;;;;0.29;95.14;100345.06;2063052;28;44316;-72
2022/01/31 04:24:31;;;;;;;23.25;10.13;;;;;;;0.27;94.93;100337.16;2062697;28;45922;-72
2022/01/31 04:26:15;;;;;;;28.55;10.38;;;;;;;0.24;95.37;100331.84;2063683;28;44185;-72
2022/01/31 04:27:05;;;;;;;20.90;9.90;;;;;;;0.23;95.27;100335.34;2059428;28;45295;-72
2022/01/31 04:28:16;;;;;;;20.10;9.65;;;;;;;0.23;95.06;100323.94;2062781;28;43030;-72
2022/01/31 04:29:18;;;;;;;25.15;10.38;;;;;;;0.21;95.13;100331.81;2062957;28;45528;-72
2022/01/31 04:30:20;;;;;;;24.88;10.90;;;;;;;0.22;95.75;100330.97;2063155;28;45981;-73
2022/01/31 04:32:25;;;;;;;27.05;12.00;;;;;;;0.23;96.21;100329.19;2062999;28;46320;-73
2022/01/31 04:33:28;;;;;;;27.10;11.75;;;;;;;0.22;95.72;100324.81;2063834;28;33832;-72
2022/01/31 04:34:33;;;;;;;29.38;12.00;;;;;;;0.22;95.54;100309.91;2062585;28;45634;-72
2022/01/31 04:35:35;;;;;;;24.65;12.25;;;;;;;0.22;95.84;100320.44;2062908;28;45876;-72
2022/01/31 04:36:37;;;;;;;23.77;12.38;;;;;;;0.23;95.99;100313.41;2062830;28;43028;-72
2022/01/31 04:37:38;;;;;;;26.05;11.98;;;;;;;0.25;95.91;100316.91;2063070;28;45227;-72
2022/01/31 04:38:41;;;;;;;24.83;12.98;;;;;;;0.26;95.95;100305.53;2063553;28;43435;-72
2022/01/31 04:39:43;;;;;;;25.58;11.85;;;;;;;0.25;95.75;100309.94;2062737;28;45314;-72
2022/01/31 04:40:45;;;;;;;28.58;13.32;;;;;;;0.26;96.13;100309.03;2062560;28;45341;-72
2022/01/31 04:41:48;;;;;;;31.73;14.32;;;;;;;0.27;96.33;100299.38;2062625;28;35146;-72
2022/01/31 04:42:50;;;;;;;25.70;14.07;;;;;;;0.28;96.33;100295.91;2062276;28;44152;-72
2022/01/31 04:43:55;;;;;;;25.50;13.20;;;;;;;0.30;96.13;100292.41;2062575;28;43899;-72
2022/01/31 04:45:00;;;;;;;29.67;14.10;;;;;;;0.28;96.49;100285.38;2062962;28;45367;-72
2022/01/31 04:46:06;;;;;;;29.02;14.85;;;;;;;0.30;96.34;100287.13;2062568;28;45292;-72
2022/01/31 04:47:08;;;;;;;27.48;12.73;;;;;;;0.30;95.92;100284.50;2062445;28;44341;-72
2022/01/31 04:48:09;;;;;;;28.30;13.70;;;;;;;0.30;95.94;100279.22;2063282;28;45483;-72
2022/01/31 04:49:11;;;;;;;26.83;13.93;;;;;;;0.30;96.26;100276.59;2063319;28;44579;-72
2022/01/31 04:50:13;;;;;;;26.80;14.45;;;;;;;0.31;96.50;100264.34;2063089;28;45476;-72
2022/01/31 04:51:17;;;;;;;23.85;14.60;;;;;;;0.31;96.18;100267.84;2062614;28;45171;-72
2022/01/31 04:52:19;;;;;;;26.38;14.10;;;;;;;0.33;96.31;100270.50;2063388;28;43382;-72
2022/01/31 04:53:21;;;;;;;30.00;14.77;;;;;;;0.33;96.30;100267.84;2062856;28;45575;-72
2022/01/31 04:54:23;;;;;;;25.90;13.13;;;;;;;0.33;96.31;100259.97;2063316;28;45234;-72
2022/01/31 04:55:24;;;;;;;24.67;14.15;;;;;;;0.32;96.10;100259.09;2063098;28;44159;-72
2022/01/31 04:56:26;;;;;;;27.67;15.23;;;;;;;0.33;96.46;100252.94;2063218;28;39173;-72
2022/01/31 04:57:27;;;;;;;26.17;14.48;;;;;;;0.35;96.90;100247.69;2062827;28;44741;-72
2022/01/31 04:58:31;;;;;;;28.35;14.82;;;;;;;0.34;96.97;100248.53;2062297;28;35978;-72
2022/01/31 04:59:41;;;;;;;25.80;14.50;;;;;;;0.38;96.70;100250.34;2063020;28;46017;-72
2022/01/31 05:00:43;;;;;;;27.92;14.65;;;;;;;0.36;96.71;100245.06;2062715;28;45503;-72
2022/01/31 05:01:46;;;;;;;27.48;14.65;;;;;;;0.38;96.73;100234.56;2062194;28;45570;-73